sensor_id;sensor_type;location;lat;lon;timestamp;pressure;altitude;pressure_sealevel;temperature;humidity
10060;BME280;5069;49.306;8.636;2023-03-14T00:02:19;98749.53;;;12.04;100.00
10060;BME280;5069;49.306;8.636;2023-03-14T00:05:21;98753.31;;;11.99;100.00
10060;BME280;5069;49.306;8.636;2023-03-14T00:08:22;98758.19;;;12.06;100.00
10060;BME280;5069;49.306;8.636;2023-03-14T00:11:26;98750.38;;;12.04;100.00
10060;BME280;5069;49.306;8.636;2023-03-14T00:14:27;98749.97;;;12.10;100.00
10060;BME280;5069;49.306;8.636;2023-03-14T00:17:29;98754.75;;;12.18;100.00
10060;BME280;5069;49.306;8.636;2023-03-14T00:20:31;98761.22;;;12.26;100.00
10060;BME280;5069;49.306;8.636;2023-03-14T00:23:33;98764.16;;;12.22;100.00
10060;BME280;5069;49.306;8.636;2023-03-14T00:26:36;98747.28;;;12.24;100.00
10060;BME280;5069;49.306;8.636;2023-03-14T00:29:37;98753.81;;;12.19;100.00
10060;BME280;5069;49.306;8.636;2023-03-14T00:32:39;98754.84;;;12.16;100.00
10060;BME280;5069;49.306;8.636;2023-03-14T00:35:42;98743.78;;;12.24;100.00
10060;BME280;5069;49.306;8.636;2023-03-14T00:38:45;98734.88;;;12.25;100.00
10060;BME280;5069;49.306;8.636;2023-03-14T00:41:46;98732.69;;;12.19;100.00
10060;BME280;5069;49.306;8.636;2023-03-14T00:44:48;98733.94;;;12.26;100.00
10060;BME280;5069;49.306;8.636;2023-03-14T00:47:50;98720.19;;;12.21;100.00
10060;BME280;5069;49.306;8.636;2023-03-14T00:50:51;98733.75;;;12.29;100.00
10060;BME280;5069;49.306;8.636;2023-03-14T00:53:53;98726.16;;;12.24;100.00
10060;BME280;5069;49.306;8.636;2023-03-14T00:56:55;98736.06;;;12.21;100.00
10060;BME280;5069;49.306;8.636;2023-03-14T00:59:56;98739.88;;;12.29;100.00
10060;BME280;5069;49.306;8.636;2023-03-14T01:02:58;98744.06;;;12.19;100.00
10060;BME280;5069;49.306;8.636;2023-03-14T01:06:14;98744.50;;;12.26;100.00
10060;BME280;5069;49.306;8.636;2023-03-14T01:09:16;98747.69;;;12.18;100.00
10060;BME280;5069;49.306;8.636;2023-03-14T01:12:19;98747.91;;;12.28;100.00
10060;BME280;5069;49.306;8.636;2023-03-14T01:15:21;98745.59;;;12.23;100.00
10060;BME280;5069;49.306;8.636;2023-03-14T01:18:22;98733.31;;;12.22;100.00
10060;BME280;5069;49.306;8.636;2023-03-14T01:21:26;98740.94;;;12.27;100.00
10060;BME280;5069;49.306;8.636;2023-03-14T01:24:29;98734.16;;;12.23;100.00
10060;BME280;5069;49.306;8.636;2023-03-14T01:27:30;98723.25;;;12.15;100.00
10060;BME280;5069;49.306;8.636;2023-03-14T01:30:32;98729.88;;;12.08;100.00
10060;BME280;5069;49.306;8.636;2023-03-14T01:33:33;98725.84;;;12.02;100.00
10060;BME280;5069;49.306;8.636;2023-03-14T01:36:35;98705.16;;;12.09;100.00
10060;BME280;5069;49.306;8.636;2023-03-14T01:39:37;98702.00;;;12.04;100.00
10060;BME280;5069;49.306;8.636;2023-03-14T01:42:44;98694.81;;;12.06;100.00
10060;BME280;5069;49.306;8.636;2023-03-14T01:49:26;98691.56;;;12.15;100.00
10060;BME280;5069;49.306;8.636;2023-03-14T01:52:39;98675.19;;;12.22;100.00
10060;BME280;5069;49.306;8.636;2023-03-14T01:55:43;98663.88;;;12.20;100.00
10060;BME280;5069;49.306;8.636;2023-03-14T01:58:47;98645.81;;;12.14;100.00
10060;BME280;5069;49.306;8.636;2023-03-14T02:01:51;98644.00;;;12.15;100.00
10060;BME280;5069;49.306;8.636;2023-03-14T02:04:54;98638.72;;;12.15;100.00
10060;BME280;5069;49.306;8.636;2023-03-14T02:08:02;98629.97;;;12.14;100.00
10060;BME280;5069;49.306;8.636;2023-03-14T02:11:10;98644.44;;;12.09;100.00
10060;BME280;5069;49.306;8.636;2023-03-14T02:14:33;98642.19;;;12.02;100.00
10060;BME280;5069;49.306;8.636;2023-03-14T02:17:58;98634.50;;;11.99;100.00
10060;BME280;5069;49.306;8.636;2023-03-14T02:21:34;98631.72;;;11.88;100.00
10060;BME280;5069;49.306;8.636;2023-03-14T02:24:50;98635.84;;;11.92;100.00
10060;BME280;5069;49.306;8.636;2023-03-14T02:27:56;98629.28;;;11.85;100.00
10060;BME280;5069;49.306;8.636;2023-03-14T02:30:57;98632.03;;;11.84;100.00
10060;BME280;5069;49.306;8.636;2023-03-14T02:33:59;98625.38;;;11.78;100.00
10060;BME280;5069;49.306;8.636;2023-03-14T02:37:04;98599.69;;;11.80;100.00
10060;BME280;5069;49.306;8.636;2023-03-14T02:40:06;98602.25;;;11.82;100.00
10060;BME280;5069;49.306;8.636;2023-03-14T02:43:09;98607.47;;;11.69;100.00
10060;BME280;5069;49.306;8.636;2023-03-14T02:46:16;98608.22;;;11.71;100.00
10060;BME280;5069;49.306;8.636;2023-03-14T02:49:19;98611.03;;;11.68;100.00
10060;BME280;5069;49.306;8.636;2023-03-14T02:52:20;98608.81;;;11.62;100.00
10060;BME280;5069;49.306;8.636;2023-03-14T02:55:23;98595.13;;;11.70;100.00
10060;BME280;5069;49.306;8.636;2023-03-14T02:58:28;98590.69;;;11.70;100.00
10060;BME280;5069;49.306;8.636;2023-03-14T03:01:38;98599.00;;;11.64;100.00
10060;BME280;5069;49.306;8.636;2023-03-14T03:04:39;98579.78;;;11.62;100.00
10060;BME280;5069;49.306;8.636;2023-03-14T03:07:41;98606.16;;;11.62;100.00
10060;BME280;5069;49.306;8.636;2023-03-14T03:10:43;98607.69;;;11.66;100.00
10060;BME280;5069;49.306;8.636;2023-03-14T03:13:44;98587.19;;;11.70;100.00
10060;BME280;5069;49.306;8.636;2023-03-14T03:16:47;98588.97;;;11.69;100.00
10060;BME280;5069;49.306;8.636;2023-03-14T03:19:49;98579.50;;;11.67;100.00
10060;BME280;5069;49.306;8.636;2023-03-14T03:22:51;98569.13;;;11.64;100.00
10060;BME280;5069;49.306;8.636;2023-03-14T03:25:52;98571.84;;;11.62;100.00
10060;BME280;5069;49.306;8.636;2023-03-14T03:28:54;98556.25;;;11.59;100.00
10060;BME280;5069;49.306;8.636;2023-03-14T03:31:57;98559.72;;;11.59;100.00
10060;BME280;5069;49.306;8.636;2023-03-14T03:34:59;98546.03;;;11.67;100.00
10060;BME280;5069;49.306;8.636;2023-03-14T03:38:01;98541.78;;;11.65;100.00
10060;BME280;5069;49.306;8.636;2023-03-14T03:41:05;98532.72;;;11.69;100.00
10060;BME280;5069;49.306;8.636;2023-03-14T03:44:07;98534.81;;;11.64;100.00
10060;BME280;5069;49.306;8.636;2023-03-14T03:47:09;98527.31;;;11.57;100.00
10060;BME280;5069;49.306;8.636;2023-03-14T03:50:10;98527.22;;;11.59;100.00
10060;BME280;5069;49.306;8.636;2023-03-14T03:53:12;98524.03;;;11.54;100.00
10060;BME280;5069;49.306;8.636;2023-03-14T03:56:16;98524.25;;;11.51;100.00
10060;BME280;5069;49.306;8.636;2023-03-14T03:59:18;98520.13;;;11.47;100.00
10060;BME280;5069;49.306;8.636;2023-03-14T04:02:19;98523.28;;;11.52;100.00
10060;BME280;5069;49.306;8.636;2023-03-14T04:05:23;98522.34;;;11.53;100.00
10060;BME280;5069;49.306;8.636;2023-03-14T04:08:34;98520.47;;;11.55;100.00
10060;BME280;5069;49.306;8.636;2023-03-14T04:11:35;98509.25;;;11.51;100.00
10060;BME280;5069;49.306;8.636;2023-03-14T04:14:45;98516.22;;;11.52;100.00
10060;BME280;5069;49.306;8.636;2023-03-14T04:17:57;98511.78;;;11.53;100.00
10060;BME280;5069;49.306;8.636;2023-03-14T04:20:59;98531.75;;;11.57;100.00
10060;BME280;5069;49.306;8.636;2023-03-14T04:24:10;98517.59;;;11.58;100.00
10060;BME280;5069;49.306;8.636;2023-03-14T04:27:12;98509.91;;;11.55;100.00
10060;BME280;5069;49.306;8.636;2023-03-14T04:30:17;98506.09;;;11.59;100.00
10060;BME280;5069;49.306;8.636;2023-03-14T04:33:24;98509.38;;;11.50;100.00
10060;BME280;5069;49.306;8.636;2023-03-14T04:36:27;98496.69;;;11.42;100.00
10060;BME280;5069;49.306;8.636;2023-03-14T04:39:31;98501.56;;;11.48;99.62
10060;BME280;5069;49.306;8.636;2023-03-14T04:42:41;98505.06;;;11.62;97.17
10060;BME280;5069;49.306;8.636;2023-03-14T04:45:43;98477.31;;;11.56;96.46
10060;BME280;5069;49.306;8.636;2023-03-14T04:48:45;98469.91;;;11.48;96.64
10060;BME280;5069;49.306;8.636;2023-03-14T04:51:47;98472.63;;;11.47;95.85
10060;BME280;5069;49.306;8.636;2023-03-14T04:54:49;98470.00;;;11.47;94.59
10060;BME280;5069;49.306;8.636;2023-03-14T04:57:52;98472.63;;;11.47;94.57
10060;BME280;5069;49.306;8.636;2023-03-14T05:00:54;98468.31;;;11.46;93.63
10060;BME280;5069;49.306;8.636;2023-03-14T05:04:14;98485.06;;;11.45;93.63
10060;BME280;5069;49.306;8.636;2023-03-14T05:07:47;98462.19;;;11.45;93.77
10060;BME280;5069;49.306;8.636;2023-03-14T05:10:58;98469.47;;;11.42;94.42
10060;BME280;5069;49.306;8.636;2023-03-14T05:14:16;98468.13;;;11.49;94.06
10060;BME280;5069;49.306;8.636;2023-03-14T05:17:34;98477.72;;;11.50;93.78
10060;BME280;5069;49.306;8.636;2023-03-14T05:21:04;98484.56;;;11.52;92.83
10060;BME280;5069;49.306;8.636;2023-03-14T05:24:24;98491.31;;;11.56;92.10
10060;BME280;5069;49.306;8.636;2023-03-14T05:27:32;98488.81;;;11.55;92.42
10060;BME280;5069;49.306;8.636;2023-03-14T05:30:58;98488.50;;;11.59;92.26
10060;BME280;5069;49.306;8.636;2023-03-14T05:34:17;98489.31;;;11.47;93.84
10060;BME280;5069;49.306;8.636;2023-03-14T05:37:37;98483.00;;;11.50;93.44
10060;BME280;5069;49.306;8.636;2023-03-14T05:40:59;98467.25;;;11.48;93.90
10060;BME280;5069;49.306;8.636;2023-03-14T05:44:33;98472.94;;;11.42;94.93
10060;BME280;5069;49.306;8.636;2023-03-14T05:47:53;98473.16;;;11.52;92.99
10060;BME280;5069;49.306;8.636;2023-03-14T05:51:11;98468.53;;;11.68;91.14
10060;BME280;5069;49.306;8.636;2023-03-14T05:54:29;98460.09;;;11.63;92.05
10060;BME280;5069;49.306;8.636;2023-03-14T05:57:49;98452.28;;;11.62;91.19
10060;BME280;5069;49.306;8.636;2023-03-14T06:01:04;98453.34;;;11.72;90.01
10060;BME280;5069;49.306;8.636;2023-03-14T06:04:18;98457.25;;;11.66;90.33
10060;BME280;5069;49.306;8.636;2023-03-14T06:07:24;98454.00;;;11.75;89.39
10060;BME280;5069;49.306;8.636;2023-03-14T06:10:26;98463.63;;;11.76;89.08
10060;BME280;5069;49.306;8.636;2023-03-14T06:13:28;98462.31;;;11.69;89.53
10060;BME280;5069;49.306;8.636;2023-03-14T06:16:30;98456.09;;;11.70;89.95
10060;BME280;5069;49.306;8.636;2023-03-14T06:19:34;98459.88;;;11.66;90.51
10060;BME280;5069;49.306;8.636;2023-03-14T06:22:36;98467.81;;;11.66;91.43
10060;BME280;5069;49.306;8.636;2023-03-14T06:25:39;98464.75;;;11.72;90.88
10060;BME280;5069;49.306;8.636;2023-03-14T06:28:40;98466.53;;;11.59;91.40
10060;BME280;5069;49.306;8.636;2023-03-14T06:31:42;98462.63;;;11.65;90.49
10060;BME280;5069;49.306;8.636;2023-03-14T06:34:46;98462.72;;;11.63;91.47
10060;BME280;5069;49.306;8.636;2023-03-14T06:37:48;98478.47;;;11.65;91.02
10060;BME280;5069;49.306;8.636;2023-03-14T06:40:49;98461.81;;;11.77;90.86
10060;BME280;5069;49.306;8.636;2023-03-14T06:44:01;98463.28;;;11.81;90.54
10060;BME280;5069;49.306;8.636;2023-03-14T06:47:03;98467.19;;;11.75;90.61
10060;BME280;5069;49.306;8.636;2023-03-14T06:50:06;98467.19;;;11.75;90.90
10060;BME280;5069;49.306;8.636;2023-03-14T06:53:08;98466.78;;;11.81;89.71
10060;BME280;5069;49.306;8.636;2023-03-14T06:56:13;98457.69;;;11.73;91.35
10060;BME280;5069;49.306;8.636;2023-03-14T06:59:15;98466.63;;;11.70;91.24
10060;BME280;5069;49.306;8.636;2023-03-14T07:02:22;98465.78;;;11.70;91.52
10060;BME280;5069;49.306;8.636;2023-03-14T07:05:46;98452.91;;;11.65;91.78
10060;BME280;5069;49.306;8.636;2023-03-14T07:08:48;98451.22;;;11.64;92.22
10060;BME280;5069;49.306;8.636;2023-03-14T07:11:50;98456.31;;;11.67;91.25
10060;BME280;5069;49.306;8.636;2023-03-14T07:14:53;98458.38;;;11.62;92.76
10060;BME280;5069;49.306;8.636;2023-03-14T07:17:55;98458.63;;;11.72;90.65
10060;BME280;5069;49.306;8.636;2023-03-14T07:20:57;98454.81;;;11.63;91.08
10060;BME280;5069;49.306;8.636;2023-03-14T07:23:59;98463.66;;;11.62;91.73
10060;BME280;5069;49.306;8.636;2023-03-14T07:27:00;98475.91;;;11.63;91.71
10060;BME280;5069;49.306;8.636;2023-03-14T07:30:03;98471.41;;;11.65;90.54
10060;BME280;5069;49.306;8.636;2023-03-14T07:33:05;98468.34;;;11.71;90.35
10060;BME280;5069;49.306;8.636;2023-03-14T07:36:07;98472.16;;;11.80;91.21
10060;BME280;5069;49.306;8.636;2023-03-14T07:39:09;98468.78;;;11.78;90.68
10060;BME280;5069;49.306;8.636;2023-03-14T07:42:21;98468.03;;;11.88;90.96
10060;BME280;5069;49.306;8.636;2023-03-14T07:45:34;98470.69;;;11.88;90.30
10060;BME280;5069;49.306;8.636;2023-03-14T07:48:43;98465.59;;;11.98;89.96
10060;BME280;5069;49.306;8.636;2023-03-14T07:51:47;98463.91;;;11.97;89.01
10060;BME280;5069;49.306;8.636;2023-03-14T07:54:49;98463.16;;;12.08;88.67
10060;BME280;5069;49.306;8.636;2023-03-14T07:57:50;98467.50;;;12.09;88.48
10060;BME280;5069;49.306;8.636;2023-03-14T08:00:52;98468.75;;;12.03;89.78
10060;BME280;5069;49.306;8.636;2023-03-14T08:03:54;98468.25;;;12.11;89.40
10060;BME280;5069;49.306;8.636;2023-03-14T08:06:55;98477.84;;;12.12;89.26
10060;BME280;5069;49.306;8.636;2023-03-14T08:09:57;98470.88;;;12.11;90.25
10060;BME280;5069;49.306;8.636;2023-03-14T08:12:59;98477.53;;;12.16;89.15
10060;BME280;5069;49.306;8.636;2023-03-14T08:16:01;98470.03;;;12.23;88.56
10060;BME280;5069;49.306;8.636;2023-03-14T08:19:03;98473.91;;;12.30;88.14
10060;BME280;5069;49.306;8.636;2023-03-14T08:22:04;98473.25;;;12.39;87.13
10060;BME280;5069;49.306;8.636;2023-03-14T08:25:06;98470.50;;;12.40;85.74
10060;BME280;5069;49.306;8.636;2023-03-14T08:28:08;98473.16;;;12.40;85.25
10060;BME280;5069;49.306;8.636;2023-03-14T08:31:09;98466.78;;;12.43;84.66
10060;BME280;5069;49.306;8.636;2023-03-14T08:34:11;98466.06;;;12.41;85.54
10060;BME280;5069;49.306;8.636;2023-03-14T08:37:13;98467.38;;;12.59;85.27
10060;BME280;5069;49.306;8.636;2023-03-14T08:40:26;98471.78;;;12.71;84.81
10060;BME280;5069;49.306;8.636;2023-03-14T08:43:28;98478.00;;;12.70;85.29
10060;BME280;5069;49.306;8.636;2023-03-14T08:46:29;98484.22;;;12.58;85.55
10060;BME280;5069;49.306;8.636;2023-03-14T08:49:31;98475.72;;;12.53;85.97
10060;BME280;5069;49.306;8.636;2023-03-14T08:52:32;98485.25;;;12.56;87.83
10060;BME280;5069;49.306;8.636;2023-03-14T08:55:34;98479.06;;;12.44;88.14
10060;BME280;5069;49.306;8.636;2023-03-14T08:58:36;98498.72;;;12.40;91.10
10060;BME280;5069;49.306;8.636;2023-03-14T09:01:39;98502.72;;;12.46;92.37
10060;BME280;5069;49.306;8.636;2023-03-14T09:04:40;98495.94;;;12.54;91.63
10060;BME280;5069;49.306;8.636;2023-03-14T09:07:42;98521.72;;;12.63;91.99
10060;BME280;5069;49.306;8.636;2023-03-14T09:10:43;98517.06;;;12.54;93.15
10060;BME280;5069;49.306;8.636;2023-03-14T09:13:45;98525.94;;;12.53;93.65
10060;BME280;5069;49.306;8.636;2023-03-14T09:16:46;98530.44;;;12.40;93.85
10060;BME280;5069;49.306;8.636;2023-03-14T09:19:48;98532.03;;;12.30;95.84
10060;BME280;5069;49.306;8.636;2023-03-14T09:22:49;98537.53;;;12.27;98.47
10060;BME280;5069;49.306;8.636;2023-03-14T09:25:55;98545.88;;;12.21;99.61
10060;BME280;5069;49.306;8.636;2023-03-14T09:28:57;98538.59;;;12.24;98.88
10060;BME280;5069;49.306;8.636;2023-03-14T09:31:59;98533.09;;;12.27;98.58
10060;BME280;5069;49.306;8.636;2023-03-14T09:35:01;98534.97;;;12.38;97.88
10060;BME280;5069;49.306;8.636;2023-03-14T09:38:02;98542.69;;;12.41;96.50
10060;BME280;5069;49.306;8.636;2023-03-14T09:41:22;98529.34;;;12.55;96.79
10060;BME280;5069;49.306;8.636;2023-03-14T09:44:32;98545.44;;;12.52;94.94
10060;BME280;5069;49.306;8.636;2023-03-14T09:47:35;98537.88;;;12.59;94.35
10060;BME280;5069;49.306;8.636;2023-03-14T09:50:50;98538.00;;;12.57;95.20
10060;BME280;5069;49.306;8.636;2023-03-14T09:53:53;98530.81;;;12.59;93.55
10060;BME280;5069;49.306;8.636;2023-03-14T09:56:54;98527.19;;;12.73;94.18
10060;BME280;5069;49.306;8.636;2023-03-14T10:00:00;98525.59;;;12.70;91.59
10060;BME280;5069;49.306;8.636;2023-03-14T10:06:14;98518.41;;;12.72;91.31
10060;BME280;5069;49.306;8.636;2023-03-14T10:09:23;98511.84;;;12.41;93.99
10060;BME280;5069;49.306;8.636;2023-03-14T10:12:37;98526.53;;;12.33;95.99
10060;BME280;5069;49.306;8.636;2023-03-14T10:15:41;98524.06;;;12.42;97.55
10060;BME280;5069;49.306;8.636;2023-03-14T10:18:45;98517.31;;;12.38;98.92
10060;BME280;5069;49.306;8.636;2023-03-14T10:21:53;98525.16;;;12.27;100.00
10060;BME280;5069;49.306;8.636;2023-03-14T10:24:57;98536.47;;;12.29;100.00
10060;BME280;5069;49.306;8.636;2023-03-14T10:28:04;98542.28;;;12.34;100.00
10060;BME280;5069;49.306;8.636;2023-03-14T10:31:06;98544.16;;;12.32;100.00
10060;BME280;5069;49.306;8.636;2023-03-14T10:34:16;98539.84;;;12.31;100.00
10060;BME280;5069;49.306;8.636;2023-03-14T10:37:21;98539.84;;;12.31;100.00
10060;BME280;5069;49.306;8.636;2023-03-14T10:40:40;98540.91;;;12.29;100.00
10060;BME280;5069;49.306;8.636;2023-03-14T10:43:42;98538.47;;;12.26;100.00
10060;BME280;5069;49.306;8.636;2023-03-14T10:46:45;98538.69;;;12.23;100.00
10060;BME280;5069;49.306;8.636;2023-03-14T10:50:32;98536.66;;;12.14;100.00
10060;BME280;5069;49.306;8.636;2023-03-14T10:53:43;98536.16;;;12.09;100.00
10060;BME280;5069;49.306;8.636;2023-03-14T10:56:56;98537.53;;;12.02;100.00
10060;BME280;5069;49.306;8.636;2023-03-14T10:59:58;98533.63;;;11.94;100.00
10060;BME280;5069;49.306;8.636;2023-03-14T11:03:10;98537.41;;;11.90;100.00
10060;BME280;5069;49.306;8.636;2023-03-14T11:06:19;98540.16;;;11.76;100.00
10060;BME280;5069;49.306;8.636;2023-03-14T11:12:52;98545.19;;;11.67;100.00
10060;BME280;5069;49.306;8.636;2023-03-14T11:16:14;98555.50;;;11.57;100.00
10060;BME280;5069;49.306;8.636;2023-03-14T11:19:43;98562.25;;;11.48;100.00
10060;BME280;5069;49.306;8.636;2023-03-14T11:22:59;98563.91;;;11.37;100.00
10060;BME280;5069;49.306;8.636;2023-03-14T11:26:33;98564.84;;;11.36;100.00
10060;BME280;5069;49.306;8.636;2023-03-14T11:30:00;98565.59;;;11.38;100.00
10060;BME280;5069;49.306;8.636;2023-03-14T11:33:16;98571.72;;;11.38;100.00
10060;BME280;5069;49.306;8.636;2023-03-14T11:36:27;98585.00;;;11.37;100.00
10060;BME280;5069;49.306;8.636;2023-03-14T11:39:41;98591.97;;;11.38;100.00
10060;BME280;5069;49.306;8.636;2023-03-14T11:42:49;98590.06;;;11.40;100.00
10060;BME280;5069;49.306;8.636;2023-03-14T11:46:01;98612.69;;;11.44;100.00
10060;BME280;5069;49.306;8.636;2023-03-14T11:49:24;98616.03;;;11.46;100.00
10060;BME280;5069;49.306;8.636;2023-03-14T11:52:32;98632.47;;;11.37;100.00
10060;BME280;5069;49.306;8.636;2023-03-14T11:55:35;98650.88;;;11.24;100.00
10060;BME280;5069;49.306;8.636;2023-03-14T11:58:50;98678.31;;;11.22;100.00
10060;BME280;5069;49.306;8.636;2023-03-14T12:08:46;98701.47;;;11.16;100.00
10060;BME280;5069;49.306;8.636;2023-03-14T12:11:50;98708.38;;;11.05;100.00
10060;BME280;5069;49.306;8.636;2023-03-14T12:15:03;98727.47;;;11.08;100.00
10060;BME280;5069;49.306;8.636;2023-03-14T12:18:18;98750.81;;;11.00;100.00
10060;BME280;5069;49.306;8.636;2023-03-14T12:21:20;98756.66;;;10.91;100.00
10060;BME280;5069;49.306;8.636;2023-03-14T12:24:25;98771.16;;;10.84;99.04
10060;BME280;5069;49.306;8.636;2023-03-14T12:27:49;98789.41;;;10.73;98.06
10060;BME280;5069;49.306;8.636;2023-03-14T12:30:51;98790.59;;;10.67;98.23
10060;BME280;5069;49.306;8.636;2023-03-14T12:34:02;98805.75;;;10.64;97.77
10060;BME280;5069;49.306;8.636;2023-03-14T12:37:25;98800.84;;;10.58;97.91
10060;BME280;5069;49.306;8.636;2023-03-14T12:40:33;98836.19;;;10.54;97.79
10060;BME280;5069;49.306;8.636;2023-03-14T12:43:37;98861.09;;;10.18;99.16
10060;BME280;5069;49.306;8.636;2023-03-14T12:46:40;98869.03;;;10.01;98.61
10060;BME280;5069;49.306;8.636;2023-03-14T12:49:41;98887.56;;;10.00;98.21
10060;BME280;5069;49.306;8.636;2023-03-14T13:00:16;98907.81;;;9.82;83.36
10060;BME280;5069;49.306;8.636;2023-03-14T13:03:21;98910.31;;;10.01;81.61
10060;BME280;5069;49.306;8.636;2023-03-14T13:06:52;98925.13;;;10.34;76.11
10060;BME280;5069;49.306;8.636;2023-03-14T13:10:13;98935.72;;;10.94;73.43
10060;BME280;5069;49.306;8.636;2023-03-14T13:13:22;98943.56;;;10.96;72.29
10060;BME280;5069;49.306;8.636;2023-03-14T13:16:24;98946.28;;;10.94;72.54
10060;BME280;5069;49.306;8.636;2023-03-14T13:19:29;98961.56;;;11.03;69.27
10060;BME280;5069;49.306;8.636;2023-03-14T13:22:34;98982.13;;;11.12;68.01
10060;BME280;5069;49.306;8.636;2023-03-14T13:25:38;98983.38;;;10.91;69.83
10060;BME280;5069;49.306;8.636;2023-03-14T13:28:39;98983.88;;;10.98;71.19
10060;BME280;5069;49.306;8.636;2023-03-14T13:31:46;98996.78;;;11.02;67.88
10060;BME280;5069;49.306;8.636;2023-03-14T13:34:48;99006.13;;;11.08;67.50
10060;BME280;5069;49.306;8.636;2023-03-14T13:37:58;99024.50;;;10.94;66.23
10060;BME280;5069;49.306;8.636;2023-03-14T13:41:12;99038.16;;;10.86;63.44
10060;BME280;5069;49.306;8.636;2023-03-14T13:44:17;99033.56;;;10.74;60.56
10060;BME280;5069;49.306;8.636;2023-03-14T13:47:22;99047.59;;;10.59;58.49
10060;BME280;5069;49.306;8.636;2023-03-14T13:50:24;99046.47;;;10.63;58.27
10060;BME280;5069;49.306;8.636;2023-03-14T13:53:26;99068.06;;;10.69;57.63
10060;BME280;5069;49.306;8.636;2023-03-14T13:56:30;99073.88;;;10.76;56.28
10060;BME280;5069;49.306;8.636;2023-03-14T13:59:34;99083.44;;;10.77;55.82
10060;BME280;5069;49.306;8.636;2023-03-14T14:02:37;99089.50;;;10.95;55.29
10060;BME280;5069;49.306;8.636;2023-03-14T14:05:44;99086.19;;;10.91;53.89
10060;BME280;5069;49.306;8.636;2023-03-14T14:08:45;99096.72;;;10.91;53.05
10060;BME280;5069;49.306;8.636;2023-03-14T14:11:57;99132.00;;;10.89;53.97
10060;BME280;5069;49.306;8.636;2023-03-14T14:15:20;99122.97;;;10.77;54.31
10060;BME280;5069;49.306;8.636;2023-03-14T14:18:26;99134.22;;;10.65;54.55
10060;BME280;5069;49.306;8.636;2023-03-14T14:21:28;99150.53;;;10.71;54.21
10060;BME280;5069;49.306;8.636;2023-03-14T14:24:32;99149.19;;;10.80;54.45
10060;BME280;5069;49.306;8.636;2023-03-14T14:27:37;99147.47;;;10.79;53.65
10060;BME280;5069;49.306;8.636;2023-03-14T14:30:40;99156.09;;;10.98;52.43
10060;BME280;5069;49.306;8.636;2023-03-14T14:33:53;99171.25;;;11.10;53.21
10060;BME280;5069;49.306;8.636;2023-03-14T14:36:55;99170.31;;;11.27;50.85
10060;BME280;5069;49.306;8.636;2023-03-14T14:39:59;99174.34;;;11.80;48.67
10060;BME280;5069;49.306;8.636;2023-03-14T14:43:03;99194.91;;;12.05;47.44
10060;BME280;5069;49.306;8.636;2023-03-14T14:46:08;99211.03;;;12.00;46.33
10060;BME280;5069;49.306;8.636;2023-03-14T14:49:13;99221.16;;;12.52;44.87
10060;BME280;5069;49.306;8.636;2023-03-14T14:52:17;99215.88;;;12.66;43.95
10060;BME280;5069;49.306;8.636;2023-03-14T14:55:20;99214.94;;;12.53;42.63
10060;BME280;5069;49.306;8.636;2023-03-14T14:58:29;99223.34;;;12.15;43.07
10060;BME280;5069;49.306;8.636;2023-03-14T15:01:37;99235.41;;;11.89;44.75
10060;BME280;5069;49.306;8.636;2023-03-14T15:04:41;99240.19;;;11.83;44.64
10060;BME280;5069;49.306;8.636;2023-03-14T15:07:42;99236.66;;;11.98;44.64
10060;BME280;5069;49.306;8.636;2023-03-14T15:10:44;99254.97;;;11.70;45.13
10060;BME280;5069;49.306;8.636;2023-03-14T15:13:46;99257.22;;;11.62;45.67
10060;BME280;5069;49.306;8.636;2023-03-14T15:16:47;99261.97;;;11.71;46.90
10060;BME280;5069;49.306;8.636;2023-03-14T15:19:48;99254.25;;;11.83;46.41
10060;BME280;5069;49.306;8.636;2023-03-14T15:22:50;99262.41;;;11.94;45.52
10060;BME280;5069;49.306;8.636;2023-03-14T15:25:53;99257.03;;;12.26;45.39
10060;BME280;5069;49.306;8.636;2023-03-14T15:28:56;99253.31;;;12.30;44.78
10060;BME280;5069;49.306;8.636;2023-03-14T15:31:58;99247.19;;;12.14;45.18
10060;BME280;5069;49.306;8.636;2023-03-14T15:34:59;99253.09;;;12.19;44.65
10060;BME280;5069;49.306;8.636;2023-03-14T15:38:01;99258.72;;;12.13;44.73
10060;BME280;5069;49.306;8.636;2023-03-14T15:41:02;99261.53;;;12.10;45.15
10060;BME280;5069;49.306;8.636;2023-03-14T15:44:04;99265.59;;;12.15;44.89
10060;BME280;5069;49.306;8.636;2023-03-14T15:47:06;99281.13;;;12.06;44.61
10060;BME280;5069;49.306;8.636;2023-03-14T15:50:09;99281.91;;;11.92;45.27
10060;BME280;5069;49.306;8.636;2023-03-14T15:53:11;99264.03;;;11.81;44.02
10060;BME280;5069;49.306;8.636;2023-03-14T15:56:15;99278.81;;;11.68;45.24
10060;BME280;5069;49.306;8.636;2023-03-14T15:59:16;99284.88;;;11.70;45.43
10060;BME280;5069;49.306;8.636;2023-03-14T16:02:18;99293.38;;;11.59;45.59
10060;BME280;5069;49.306;8.636;2023-03-14T16:05:19;99291.75;;;11.57;45.97
10060;BME280;5069;49.306;8.636;2023-03-14T16:08:23;99295.84;;;11.63;45.71
10060;BME280;5069;49.306;8.636;2023-03-14T16:11:26;99302.06;;;11.46;45.79
10060;BME280;5069;49.306;8.636;2023-03-14T16:14:27;99313.03;;;11.38;46.42
10060;BME280;5069;49.306;8.636;2023-03-14T16:17:29;99317.56;;;11.52;46.72
10060;BME280;5069;49.306;8.636;2023-03-14T16:20:30;99319.91;;;11.41;46.86
10060;BME280;5069;49.306;8.636;2023-03-14T16:23:48;99322.88;;;11.35;48.09
10060;BME280;5069;49.306;8.636;2023-03-14T16:26:49;99337.69;;;11.22;48.00
10060;BME280;5069;49.306;8.636;2023-03-14T16:29:50;99328.53;;;11.11;48.77
10060;BME280;5069;49.306;8.636;2023-03-14T16:32:52;99340.75;;;10.97;49.09
10060;BME280;5069;49.306;8.636;2023-03-14T16:35:56;99351.06;;;10.84;49.81
10060;BME280;5069;49.306;8.636;2023-03-14T16:38:58;99359.91;;;10.83;50.41
10060;BME280;5069;49.306;8.636;2023-03-14T16:41:59;99358.03;;;10.85;50.48
10060;BME280;5069;49.306;8.636;2023-03-14T16:45:00;99361.06;;;10.77;50.46
10060;BME280;5069;49.306;8.636;2023-03-14T16:48:02;99357.25;;;10.66;50.71
10060;BME280;5069;49.306;8.636;2023-03-14T16:51:04;99365.94;;;10.68;51.20
10060;BME280;5069;49.306;8.636;2023-03-14T16:54:05;99373.25;;;10.63;50.50
10060;BME280;5069;49.306;8.636;2023-03-14T16:57:06;99381.28;;;10.60;50.76
10060;BME280;5069;49.306;8.636;2023-03-14T17:00:08;99377.28;;;10.53;51.68